Time;durP1;ratioP1;P1;durP2;ratioP2;P2;SDS_P1;SDS_P2;PMS_P1;PMS_P2;Temp;Humidity;BMP_temperature;BMP_pressure;BME280_temperature;BME280_humidity;BME280_pressure;Samples;Min_cycle;Max_cycle;Signal;HPM_P1;HPM_P2
2022/07/07 00:00:07;;;;;;;1.77;1.00;;;;;;;19.21;63.82;101969.88;5083425;28;20049;-63
2022/07/07 00:02:34;;;;;;;5.95;1.40;;;;;;;18.98;65.41;101982.53;5066990;28;20060;-63
2022/07/07 00:05:02;;;;;;;3.47;1.52;;;;;;;18.74;66.40;101974.78;5068280;28;20052;-63
2022/07/07 00:07:30;;;;;;;5.32;1.20;;;;;;;18.87;66.19;101975.72;5056969;28;20141;-63
2022/07/07 00:09:58;;;;;;;3.22;1.23;;;;;;;19.20;65.32;101964.59;5068534;28;20048;-64
2022/07/07 00:12:25;;;;;;;2.20;1.10;;;;;;;18.83;66.28;101972.78;5064289;28;20059;-64
2022/07/07 00:14:54;;;;;;;4.03;1.40;;;;;;;18.67;66.86;101971.72;5078397;28;20045;-63
2022/07/07 00:17:21;;;;;;;3.25;1.20;;;;;;;18.56;67.49;101969.66;5072837;28;20509;-63
2022/07/07 00:19:48;;;;;;;2.35;1.33;;;;;;;18.56;67.44;101964.91;5063543;28;20052;-63
2022/07/07 00:22:16;;;;;;;4.22;1.23;;;;;;;18.65;66.91;101973.22;5058653;28;20427;-64
2022/07/07 00:24:43;;;;;;;2.85;1.20;;;;;;;18.77;66.73;101960.19;5085237;28;20049;-64
2022/07/07 00:27:10;;;;;;;2.28;1.23;;;;;;;18.75;67.30;101965.28;5073353;28;20048;-63
2022/07/07 00:29:38;;;;;;;2.92;1.20;;;;;;;18.90;66.56;101955.47;5065313;28;20403;-65
2022/07/07 00:32:05;;;;;;;3.72;1.52;;;;;;;19.21;65.25;101958.72;5081787;28;20035;-64
2022/07/07 00:34:33;;;;;;;2.83;1.10;;;;;;;18.92;66.63;101954.00;5071307;28;20064;-64
2022/07/07 00:37:01;;;;;;;3.53;1.30;;;;;;;19.33;65.55;101958.78;5085010;28;20070;-64
2022/07/07 00:39:28;;;;;;;3.38;1.10;;;;;;;19.50;64.50;101950.25;5070865;28;20052;-64
2022/07/07 00:41:56;;;;;;;3.47;1.13;;;;;;;19.10;65.26;101954.69;5072087;28;20037;-64
2022/07/07 00:44:23;;;;;;;4.75;1.50;;;;;;;18.78;66.94;101955.41;5084778;28;20083;-64
2022/07/07 00:46:53;;;;;;;4.32;1.40;;;;;;;18.88;66.45;101938.28;5070535;28;20044;-65
2022/07/07 00:49:21;;;;;;;3.30;1.25;;;;;;;18.93;66.94;101929.69;5069062;28;20049;-64
2022/07/07 00:51:49;;;;;;;2.67;1.27;;;;;;;19.61;63.82;101929.09;5062376;28;20055;-64
2022/07/07 00:54:16;;;;;;;8.27;1.30;;;;;;;19.77;64.44;101926.47;5045916;28;20051;-63
2022/07/07 00:56:44;;;;;;;2.67;1.33;;;;;;;20.01;63.23;101932.09;5093552;28;20059;-65
2022/07/07 00:59:15;;;;;;;4.50;1.20;;;;;;;19.76;63.89;101925.63;5071278;28;20060;-64
2022/07/07 01:01:43;;;;;;;5.75;1.60;;;;;;;19.52;63.91;101928.38;5078123;28;20049;-64
2022/07/07 01:04:11;;;;;;;5.18;1.60;;;;;;;19.29;64.53;101923.44;5087194;28;20051;-64
2022/07/07 01:06:40;;;;;;;3.60;1.58;;;;;;;18.55;67.18;101928.97;5078185;28;20055;-63
2022/07/07 01:09:09;;;;;;;3.30;1.57;;;;;;;18.54;67.95;101921.75;5080477;28;20051;-64
2022/07/07 01:11:45;;;;;;;3.28;1.45;;;;;;;18.46;68.24;101909.47;5053872;28;20524;-64
2022/07/07 01:14:13;;;;;;;3.47;1.60;;;;;;;19.12;67.03;101902.09;5071163;28;20045;-64
2022/07/07 01:16:40;;;;;;;5.05;1.42;;;;;;;19.36;65.03;101910.59;5082268;28;20054;-63
2022/07/07 01:19:08;;;;;;;5.80;1.50;;;;;;;19.14;65.99;101908.16;5082383;28;20047;-64
2022/07/07 01:21:42;;;;;;;4.07;1.48;;;;;;;18.65;67.04;101903.44;5086095;28;20047;-64
2022/07/07 01:24:09;;;;;;;2.35;1.38;;;;;;;18.56;67.64;101911.06;5084553;28;20523;-63
2022/07/07 01:26:38;;;;;;;3.10;1.45;;;;;;;18.59;68.94;101915.97;5068252;28;20056;-65
2022/07/07 01:29:06;;;;;;;5.35;1.52;;;;;;;18.95;66.31;101910.63;5080153;28;20052;-65
2022/07/07 01:31:33;;;;;;;3.35;1.40;;;;;;;18.69;67.36;101910.00;5060147;28;20134;-64
2022/07/07 01:34:01;;;;;;;4.75;1.40;;;;;;;19.21;66.32;101913.19;5055048;28;20063;-64
2022/07/07 01:36:28;;;;;;;6.40;1.90;;;;;;;18.75;66.67;101905.84;5073622;28;20041;-63
2022/07/07 01:38:55;;;;;;;2.08;1.27;;;;;;;18.75;68.40;101906.66;5072565;28;20045;-64
2022/07/07 01:41:22;;;;;;;4.25;1.77;;;;;;;18.79;67.39;101904.81;5078371;28;20055;-63
2022/07/07 01:43:50;;;;;;;4.18;1.48;;;;;;;18.91;67.64;101904.91;5068687;28;20049;-64
2022/07/07 01:46:17;;;;;;;2.78;1.30;;;;;;;18.90;66.75;101897.66;5085879;28;20083;-63
2022/07/07 01:48:45;;;;;;;2.67;1.17;;;;;;;19.23;66.87;101897.69;5072413;28;20044;-64
2022/07/07 01:51:12;;;;;;;4.35;1.50;;;;;;;19.25;65.34;101892.59;5072449;28;20586;-64
2022/07/07 01:53:39;;;;;;;4.32;1.70;;;;;;;19.22;66.14;101896.06;5073104;28;20519;-63
2022/07/07 01:56:07;;;;;;;12.70;1.90;;;;;;;18.69;67.45;101901.63;5082669;28;20491;-66
2022/07/07 01:58:34;;;;;;;3.60;1.45;;;;;;;18.80;68.27;101895.28;5087100;28;20055;-64
2022/07/07 02:01:04;;;;;;;4.93;1.63;;;;;;;19.40;66.28;101883.63;5088229;28;20063;-63
2022/07/07 02:03:31;;;;;;;4.32;1.50;;;;;;;19.24;66.16;101885.38;5043206;28;20064;-64
2022/07/07 02:06:00;;;;;;;2.97;1.58;;;;;;;19.04;66.43;101892.63;5044716;28;20495;-63
2022/07/07 02:08:27;;;;;;;3.65;1.60;;;;;;;19.32;66.07;101878.91;5068241;28;20071;-64
2022/07/07 02:11:13;;;;;;;4.93;1.48;;;;;;;19.52;65.14;101878.06;5085337;28;20052;-64
2022/07/07 02:13:45;;;;;;;3.28;1.40;;;;;;;19.34;65.04;101879.38;5069273;28;20080;-64
2022/07/07 02:16:13;;;;;;;2.72;1.25;;;;;;;19.26;66.05;101879.44;5079869;28;20059;-64
2022/07/07 02:18:42;;;;;;;3.13;1.70;;;;;;;19.37;65.44;101870.31;5075060;28;20048;-63
2022/07/07 02:21:11;;;;;;;4.95;1.42;;;;;;;19.65;64.36;101860.13;5078548;28;20052;-63
2022/07/07 02:23:40;;;;;;;3.78;1.42;;;;;;;19.42;64.24;101867.28;5076111;28;20053;-64
2022/07/07 02:26:07;;;;;;;5.70;1.30;;;;;;;19.72;64.68;101870.72;5073342;28;20052;-64
2022/07/07 02:28:36;;;;;;;2.22;1.10;;;;;;;19.76;63.79;101866.91;5081733;28;20051;-66
2022/07/07 02:31:04;;;;;;;4.82;1.58;;;;;;;19.39;64.01;101869.97;5074799;28;20052;-65
2022/07/07 02:33:31;;;;;;;5.15;1.50;;;;;;;19.00;65.69;101876.91;5051743;28;20063;-64
2022/07/07 02:35:59;;;;;;;5.45;1.60;;;;;;;19.34;64.84;101871.00;5079480;28;20047;-63
2022/07/07 02:38:27;;;;;;;4.10;1.40;;;;;;;19.41;65.25;101868.47;5049076;28;20053;-63
2022/07/07 02:40:54;;;;;;;3.63;1.25;;;;;;;19.49;65.42;101870.34;5074982;28;20052;-63
2022/07/07 02:43:22;;;;;;;6.32;1.60;;;;;;;19.88;63.94;101875.31;5080689;28;20832;-63
2022/07/07 02:45:50;;;;;;;3.67;1.63;;;;;;;19.55;63.80;101871.75;5076340;28;20037;-63
2022/07/07 02:48:20;;;;;;;4.28;2.03;;;;;;;18.26;67.87;101881.50;5079054;28;20045;-62
2022/07/07 02:50:47;;;;;;;7.73;2.00;;;;;;;18.30;68.31;101880.50;5082228;28;20051;-62
2022/07/07 02:53:15;;;;;;;5.60;2.00;;;;;;;17.67;70.70;101883.41;5077419;28;20299;-62
2022/07/07 02:55:43;;;;;;;5.10;2.10;;;;;;;17.67;72.18;101878.66;5077681;28;20508;-63
2022/07/07 02:58:12;;;;;;;3.85;2.05;;;;;;;18.06;71.59;101883.09;5076402;28;20056;-63
2022/07/07 03:00:39;;;;;;;3.90;1.80;;;;;;;18.12;71.29;101880.91;5083957;28;20447;-63
2022/07/07 03:03:10;;;;;;;4.97;2.00;;;;;;;18.01;70.44;101877.69;5050985;28;20075;-64
2022/07/07 03:05:38;;;;;;;5.10;2.10;;;;;;;18.05;69.84;101877.84;5080718;28;20049;-62
2022/07/07 03:08:06;;;;;;;6.03;2.20;;;;;;;17.98;70.92;101875.59;5084331;28;20048;-63
2022/07/07 03:10:33;;;;;;;5.57;2.17;;;;;;;18.02;70.97;101878.50;5086434;28;20059;-64
2022/07/07 03:13:01;;;;;;;3.50;1.90;;;;;;;18.18;70.16;101882.38;5075330;28;20045;-62
2022/07/07 03:15:28;;;;;;;4.93;2.33;;;;;;;18.23;69.55;101876.59;5079128;28;21746;-64
2022/07/07 03:17:56;;;;;;;5.13;2.05;;;;;;;18.12;70.69;101878.13;5072864;28;20044;-63
2022/07/07 03:20:23;;;;;;;5.00;2.00;;;;;;;18.08;70.33;101879.97;5085074;28;20391;-63
2022/07/07 03:22:51;;;;;;;4.68;2.28;;;;;;;17.88;70.50;101873.19;5043207;28;20048;-63
2022/07/07 03:25:18;;;;;;;5.28;2.20;;;;;;;17.58;72.58;101874.25;5079881;28;20048;-63
2022/07/07 03:27:46;;;;;;;5.22;2.13;;;;;;;17.71;72.72;101881.59;5072383;28;20052;-64
2022/07/07 03:30:14;;;;;;;4.97;1.95;;;;;;;18.15;72.01;101877.47;5068254;28;20055;-63
2022/07/07 03:32:42;;;;;;;8.27;2.67;;;;;;;18.15;69.99;101878.28;5079114;28;20045;-63
2022/07/07 03:35:09;;;;;;;5.93;2.22;;;;;;;17.76;71.26;101881.41;5082577;28;20048;-62
2022/07/07 03:37:37;;;;;;;8.82;2.78;;;;;;;17.43;73.14;101883.94;5064527;28;20162;-63
2022/07/07 03:40:05;;;;;;;6.07;2.70;;;;;;;17.48;73.59;101875.44;5071249;28;20387;-59
2022/07/07 03:42:33;;;;;;;6.38;2.67;;;;;;;17.28;74.28;101876.09;5065731;28;20048;-62
2022/07/07 03:45:00;;;;;;;10.05;3.00;;;;;;;17.23;74.97;101873.50;5087139;28;20446;-64
2022/07/07 03:47:28;;;;;;;7.25;2.70;;;;;;;17.57;74.37;101881.00;5083276;28;20048;-60
2022/07/07 03:49:55;;;;;;;6.07;2.50;;;;;;;17.25;74.65;101875.94;5089504;28;20057;-60
2022/07/07 03:52:22;;;;;;;5.18;2.55;;;;;;;17.03;76.53;101878.91;5077832;28;20060;-62
2022/07/07 03:54:50;;;;;;;6.43;2.75;;;;;;;17.18;76.83;101870.88;5041897;28;20049;-60
2022/07/07 03:57:17;;;;;;;7.13;3.10;;;;;;;17.30;75.65;101871.03;5051377;28;20053;-59
2022/07/07 03:59:45;;;;;;;9.60;3.15;;;;;;;17.27;75.98;101859.72;5060825;28;20090;-59
2022/07/07 04:02:12;;;;;;;8.38;2.80;;;;;;;17.55;75.02;101861.00;5081600;28;20048;-58
2022/07/07 04:04:39;;;;;;;7.07;3.05;;;;;;;17.58;75.02;101869.50;5074083;28;20048;-60
2022/07/07 04:07:07;;;;;;;6.97;2.90;;;;;;;18.14;72.48;101857.13;5059514;28;20443;-63
2022/07/07 04:09:34;;;;;;;7.05;3.03;;;;;;;18.13;73.09;101854.69;5082596;28;20486;-61
2022/07/07 04:12:02;;;;;;;6.40;2.50;;;;;;;18.42;71.54;101857.47;5064617;28;20566;-61
2022/07/07 04:14:30;;;;;;;8.70;3.20;;;;;;;18.12;71.40;101865.00;5078338;28;20055;-60
2022/07/07 04:16:57;;;;;;;6.00;2.53;;;;;;;18.06;73.81;101851.59;5079641;28;20052;-60
2022/07/07 04:19:24;;;;;;;9.00;3.55;;;;;;;17.99;72.88;101863.28;5074492;28;20044;-61
2022/07/07 04:21:52;;;;;;;7.93;2.72;;;;;;;18.44;72.58;101850.41;5080037;28;20618;-61
2022/07/07 04:24:22;;;;;;;8.32;3.00;;;;;;;18.07;72.78;101862.41;5048734;28;20063;-58
2022/07/07 04:26:50;;;;;;;8.82;3.00;;;;;;;17.53;74.85;101861.34;5081968;28;20055;-60
2022/07/07 04:29:17;;;;;;;8.05;2.97;;;;;;;17.39;77.03;101859.84;5043307;28;20052;-60
2022/07/07 04:31:52;;;;;;;12.43;3.45;;;;;;;17.68;75.56;101869.16;5079053;28;20048;-63
2022/07/07 04:34:22;;;;;;;6.15;3.03;;;;;;;17.43;76.68;101866.41;5083722;28;20089;-63
2022/07/07 04:36:50;;;;;;;7.78;2.80;;;;;;;17.72;75.53;101858.97;5050282;28;20052;-63
2022/07/07 04:39:17;;;;;;;7.72;3.47;;;;;;;17.65;75.40;101869.81;5091941;28;20060;-63
2022/07/07 04:41:44;;;;;;;8.02;3.15;;;;;;;17.63;76.16;101876.88;5071619;28;20449;-60
2022/07/07 04:44:11;;;;;;;8.30;3.13;;;;;;;17.28;77.78;101866.91;5087512;28;20048;-61
2022/07/07 04:46:39;;;;;;;5.50;2.55;;;;;;;17.57;77.46;101867.06;5075768;28;20040;-60
2022/07/07 04:49:06;;;;;;;9.23;3.25;;;;;;;17.88;75.77;101874.00;5074438;28;20052;-60
2022/07/07 04:51:37;;;;;;;10.38;3.65;;;;;;;17.42;76.76;101884.25;5056978;28;20523;-59
2022/07/07 04:54:05;;;;;;;9.95;3.63;;;;;;;17.18;78.40;101882.03;5081657;28;20045;-59
2022/07/07 04:56:32;;;;;;;7.45;3.38;;;;;;;17.00;79.73;101897.09;5077265;28;20063;-60
2022/07/07 04:58:59;;;;;;;9.32;3.10;;;;;;;17.14;80.41;101899.72;5045646;28;20610;-59
2022/07/07 05:01:27;;;;;;;15.65;3.20;;;;;;;17.35;78.79;101897.88;5071067;28;20052;-59
2022/07/07 05:03:54;;;;;;;7.68;2.95;;;;;;;17.39;78.40;101905.25;5066813;28;20036;-61
2022/07/07 05:06:22;;;;;;;7.70;3.28;;;;;;;17.41;78.33;101902.13;5072829;28;20049;-60
2022/07/07 05:08:49;;;;;;;7.22;2.80;;;;;;;17.68;78.13;101897.00;5057549;28;20048;-61
2022/07/07 05:11:16;;;;;;;11.35;3.13;;;;;;;17.06;80.29;101906.09;5083492;28;20054;-60
2022/07/07 05:13:44;;;;;;;6.28;2.40;;;;;;;17.78;78.20;101904.22;5063220;28;20053;-60
2022/07/07 05:16:11;;;;;;;9.27;3.10;;;;;;;17.80;76.71;101913.84;5064852;28;20058;-60
2022/07/07 05:18:39;;;;;;;4.82;2.50;;;;;;;17.85;77.11;101905.31;5066107;28;20052;-61
2022/07/07 05:21:06;;;;;;;13.85;3.10;;;;;;;18.26;74.45;101907.44;5079458;28;20044;-59
2022/07/07 05:23:33;;;;;;;10.40;3.20;;;;;;;17.81;76.31;101912.72;5056997;28;20048;-60
2022/07/07 05:26:00;;;;;;;8.05;3.03;;;;;;;17.97;76.62;101910.19;5080655;28;20053;-61
2022/07/07 05:28:30;;;;;;;8.98;3.10;;;;;;;18.07;75.46;101906.22;5081095;28;20052;-60
2022/07/07 05:30:57;;;;;;;12.23;3.10;;;;;;;18.16;75.18;101907.00;5077343;28;20048;-60
2022/07/07 05:33:25;;;;;;;12.48;3.25;;;;;;;17.95;75.60;101904.13;5083909;28;20053;-62
2022/07/07 05:35:52;;;;;;;14.48;3.67;;;;;;;17.53;78.13;101913.44;5081194;28;20051;-60
2022/07/07 05:38:29;;;;;;;8.38;2.75;;;;;;;18.27;76.07;101908.25;5063724;28;20406;-60
2022/07/07 05:40:56;;;;;;;14.07;3.63;;;;;;;18.10;75.41;101916.72;5064520;28;20048;-61
2022/07/07 05:43:24;;;;;;;10.27;2.80;;;;;;;18.34;74.99;101908.56;5072193;28;20051;-59
2022/07/07 05:45:52;;;;;;;10.80;3.30;;;;;;;18.17;75.34;101906.66;5079566;28;20044;-61
2022/07/07 05:48:20;;;;;;;14.23;3.30;;;;;;;17.92;76.59;101913.97;5077707;28;20048;-61
2022/07/07 05:50:47;;;;;;;8.93;3.13;;;;;;;18.01;76.88;101910.34;5076988;28;20052;-59
2022/07/07 05:53:14;;;;;;;9.55;2.80;;;;;;;18.47;74.79;101913.91;5069591;28;20056;-60
2022/07/07 05:55:42;;;;;;;9.77;3.03;;;;;;;18.67;73.27;101917.91;5085892;28;20055;-60
2022/07/07 05:58:09;;;;;;;11.68;3.33;;;;;;;18.11;75.72;101919.16;5051516;28;20412;-60
2022/07/07 06:00:36;;;;;;;10.77;3.80;;;;;;;17.89;77.00;101923.00;5080567;28;20063;-60
2022/07/07 06:03:03;;;;;;;8.75;2.95;;;;;;;18.27;75.50;101917.41;5090593;28;20047;-60
2022/07/07 06:05:31;;;;;;;11.98;3.20;;;;;;;17.92;77.23;101921.53;5058198;28;20072;-60
2022/07/07 06:07:59;;;;;;;13.65;3.05;;;;;;;17.87;77.44;101925.31;5057944;28;20049;-61
2022/07/07 06:10:26;;;;;;;9.02;2.75;;;;;;;17.91;77.94;101925.47;5079464;28;20052;-60
2022/07/07 06:12:53;;;;;;;13.23;3.22;;;;;;;18.33;75.80;101934.78;5073546;28;20045;-61
2022/07/07 06:15:21;;;;;;;9.95;3.13;;;;;;;18.48;74.73;101932.28;5078471;28;20064;-60
2022/07/07 06:17:49;;;;;;;12.15;2.90;;;;;;;18.12;76.08;101933.91;5060170;28;20040;-61
2022/07/07 06:20:37;;;;;;;14.77;2.88;;;;;;;18.04;77.29;101946.75;5052431;28;20079;-60
2022/07/07 06:23:05;;;;;;;10.93;3.50;;;;;;;17.69;78.58;101954.41;5075906;28;20048;-60
2022/07/07 06:25:34;;;;;;;18.13;3.97;;;;;;;17.47;80.57;101949.00;5072119;28;20050;-61
2022/07/07 06:28:01;;;;;;;15.90;3.45;;;;;;;17.59;79.95;101951.94;5063895;28;20079;-60
2022/07/07 06:30:29;;;;;;;16.85;3.25;;;;;;;18.27;78.34;101964.03;5053197;28;20048;-62
2022/07/07 06:32:57;;;;;;;10.63;2.95;;;;;;;18.82;75.04;101967.53;5077374;28;20052;-61
2022/07/07 06:35:26;;;;;;;10.30;2.90;;;;;;;19.03;73.35;101955.22;5057947;28;20045;-62
2022/07/07 06:37:53;;;;;;;10.73;3.15;;;;;;;18.20;75.95;101966.53;5069956;28;20055;-59
2022/07/07 06:40:21;;;;;;;9.55;2.67;;;;;;;17.97;77.63;101975.13;5079000;28;20056;-61
2022/07/07 06:42:49;;;;;;;12.38;3.08;;;;;;;17.87;78.08;101981.06;5068502;28;20048;-61
2022/07/07 06:45:23;;;;;;;11.63;3.08;;;;;;;18.59;75.72;101980.16;5040139;28;20056;-61
2022/07/07 06:47:51;;;;;;;14.77;3.08;;;;;;;18.87;73.13;101981.28;5061099;28;20048;-61
2022/07/07 06:50:24;;;;;;;9.45;2.83;;;;;;;18.44;75.52;101969.56;5070237;28;20072;-62
2022/07/07 06:52:52;;;;;;;22.88;3.85;;;;;;;18.58;75.00;101962.59;5051288;28;20056;-64
2022/07/07 06:55:20;;;;;;;17.17;3.00;;;;;;;18.34;76.19;101981.09;5060118;28;20408;-64
2022/07/07 06:57:47;;;;;;;12.32;2.78;;;;;;;18.67;75.82;101970.94;5086586;28;20052;-62
2022/07/07 07:00:14;;;;;;;12.05;2.72;;;;;;;18.59;75.43;101975.41;5077812;28;20051;-62
2022/07/07 07:02:43;;;;;;;13.90;2.88;;;;;;;19.12;73.63;101973.88;5063185;28;20063;-61
2022/07/07 07:05:14;;;;;;;10.18;2.40;;;;;;;19.14;72.88;101966.81;5075769;28;20036;-61
2022/07/07 07:07:45;;;;;;;10.52;2.85;;;;;;;19.17;72.47;101963.34;5073295;28;20056;-63
2022/07/07 07:10:13;;;;;;;15.85;2.83;;;;;;;18.94;73.40;101976.00;5078904;28;20052;-61
2022/07/07 07:12:41;;;;;;;9.73;2.58;;;;;;;18.92;73.26;101981.09;5081239;28;20049;-62
2022/07/07 07:15:10;;;;;;;12.88;3.10;;;;;;;19.03;72.90;101972.00;5063902;28;20044;-61
2022/07/07 07:17:37;;;;;;;12.23;3.33;;;;;;;19.30;72.33;101976.22;5078646;28;20060;-60
2022/07/07 07:20:05;;;;;;;9.32;2.75;;;;;;;19.57;70.76;101986.00;5078504;28;20071;-61
2022/07/07 07:22:38;;;;;;;7.90;2.28;;;;;;;18.81;73.52;101991.03;5059838;28;20146;-61
2022/07/07 07:25:06;;;;;;;8.15;2.58;;;;;;;18.80;74.27;101998.59;5064378;28;20393;-61
2022/07/07 07:27:34;;;;;;;8.57;2.47;;;;;;;19.11;72.23;102003.00;5074785;28;20039;-61
2022/07/07 07:30:03;;;;;;;13.60;2.40;;;;;;;19.12;72.61;102004.63;5080042;28;20052;-61
2022/07/07 07:32:31;;;;;;;13.77;2.72;;;;;;;19.44;72.30;102001.91;5056373;28;20053;-61
2022/07/07 07:34:58;;;;;;;11.52;2.50;;;;;;;19.58;70.64;102001.66;5060582;28;20040;-61
2022/07/07 07:37:29;;;;;;;19.67;3.20;;;;;;;19.64;70.32;102003.88;5084578;28;20043;-61
2022/07/07 07:39:56;;;;;;;10.73;2.70;;;;;;;19.78;69.65;102004.41;5081329;28;20051;-61
2022/07/07 07:42:23;;;;;;;8.38;2.63;;;;;;;19.61;70.53;102010.16;5081922;28;20513;-59
2022/07/07 07:45:11;;;;;;;14.25;3.10;;;;;;;19.74;69.73;102009.03;5080758;28;20418;-60
2022/07/07 07:47:41;;;;;;;9.65;2.50;;;;;;;20.06;68.25;102008.22;5063879;28;20063;-67
2022/07/07 07:50:12;;;;;;;7.50;2.40;;;;;;;19.80;68.73;102012.44;5057041;28;20049;-68
2022/07/07 07:52:40;;;;;;;12.20;2.33;;;;;;;19.53;70.12;102019.44;5071750;28;20119;-67
2022/07/07 07:55:09;;;;;;;8.90;2.25;;;;;;;19.63;69.86;102013.41;5062173;28;20048;-66
2022/07/07 07:57:37;;;;;;;12.38;2.35;;;;;;;19.72;69.02;102022.53;5075823;28;20087;-65
2022/07/07 08:00:06;;;;;;;7.65;2.17;;;;;;;19.79;68.71;102030.34;5065758;28;20045;-67
2022/07/07 08:02:41;;;;;;;11.13;2.10;;;;;;;19.64;69.07;102026.25;5058202;28;20052;-66
2022/07/07 08:05:10;;;;;;;8.40;2.17;;;;;;;19.66;69.55;102023.94;5071423;28;20041;-66
2022/07/07 08:07:38;;;;;;;7.63;2.65;;;;;;;19.96;68.64;102017.03;5052071;28;20500;-67
2022/07/07 08:10:08;;;;;;;7.82;2.20;;;;;;;20.37;66.46;102010.50;5072727;28;20419;-67
2022/07/07 08:12:35;;;;;;;11.13;2.17;;;;;;;21.24;65.28;102012.56;5076540;28;20039;-67
2022/07/07 08:15:04;;;;;;;5.72;1.90;;;;;;;20.87;64.82;102007.38;5070602;28;20075;-67
2022/07/07 08:17:33;;;;;;;8.63;1.65;;;;;;;20.38;64.48;102003.72;5081825;28;20432;-64
2022/07/07 08:20:00;;;;;;;6.65;1.90;;;;;;;20.48;64.91;102008.06;5076964;28;20052;-65
2022/07/07 08:22:28;;;;;;;8.35;2.00;;;;;;;20.26;65.77;102008.50;5067288;28;21024;-67
2022/07/07 08:24:56;;;;;;;9.68;2.20;;;;;;;20.44;65.70;102007.13;5080822;28;20048;-67
2022/07/07 08:27:25;;;;;;;6.78;2.05;;;;;;;20.62;64.27;102012.16;5076080;28;20040;-66
2022/07/07 08:29:53;;;;;;;9.57;2.35;;;;;;;20.51;65.20;102001.75;5085997;28;20055;-66
2022/07/07 08:32:21;;;;;;;6.25;2.30;;;;;;;20.65;64.46;102003.06;5074982;28;20427;-66
2022/07/07 08:34:48;;;;;;;11.20;2.33;;;;;;;20.77;64.45;102003.03;5053317;28;20044;-66
2022/07/07 08:37:16;;;;;;;7.05;2.05;;;;;;;21.01;63.83;102002.22;5063357;28;20044;-67
2022/07/07 08:39:44;;;;;;;5.30;1.65;;;;;;;20.77;63.67;102002.22;5060178;28;20052;-66
2022/07/07 08:42:12;;;;;;;5.78;1.83;;;;;;;20.92;63.48;101998.72;5049196;28;20127;-66
2022/07/07 08:44:39;;;;;;;5.80;1.63;;;;;;;20.72;63.49;101977.25;5057040;28;20432;-66
2022/07/07 08:47:07;;;;;;;12.85;2.15;;;;;;;21.25;62.69;101979.78;5075533;28;20068;-67
2022/07/07 08:49:34;;;;;;;8.50;2.33;;;;;;;21.62;61.19;101989.66;5065034;28;20049;-68
2022/07/07 08:52:02;;;;;;;10.65;2.10;;;;;;;21.52;61.22;101992.16;5079971;28;20044;-67
2022/07/07 08:54:31;;;;;;;10.00;2.25;;;;;;;21.74;60.21;101992.41;5064044;28;20075;-67
2022/07/07 08:56:59;;;;;;;6.55;2.13;;;;;;;21.92;59.33;102006.97;5079585;28;20048;-66
2022/07/07 08:59:26;;;;;;;6.75;1.58;;;;;;;21.29;60.80;102019.13;5075599;28;20049;-65
2022/07/07 09:02:03;;;;;;;8.35;1.67;;;;;;;20.99;61.92;102015.78;5054772;28;20057;-66
2022/07/07 09:04:30;;;;;;;6.53;1.42;;;;;;;20.64;62.86;102011.81;5073074;28;20052;-66
2022/07/07 09:07:03;;;;;;;4.35;1.35;;;;;;;20.55;63.62;102009.13;5061755;28;20048;-66
2022/07/07 09:09:45;;;;;;;8.65;1.48;;;;;;;20.91;62.56;102002.69;5056000;28;20067;-66
2022/07/07 09:12:14;;;;;;;9.73;1.45;;;;;;;20.87;62.43;102005.38;5067015;28;20052;-67
2022/07/07 09:14:43;;;;;;;10.57;1.80;;;;;;;21.15;61.32;102002.66;5071639;28;20045;-67
2022/07/07 09:17:28;;;;;;;7.47;1.58;;;;;;;21.35;60.11;102003.66;5052271;28;20052;-66
2022/07/07 09:20:08;;;;;;;6.70;1.40;;;;;;;21.57;59.41;101992.72;5081700;28;20427;-67
2022/07/07 09:22:56;;;;;;;4.10;1.20;;;;;;;21.99;58.09;101996.75;5068383;28;20067;-68
2022/07/07 09:25:30;;;;;;;16.52;2.65;;;;;;;22.04;57.33;102004.09;5038864;28;20060;-67
2022/07/07 09:28:04;;;;;;;4.25;1.10;;;;;;;21.42;58.22;102001.06;5074681;28;20060;-66
2022/07/07 09:30:33;;;;;;;3.63;1.13;;;;;;;21.45;58.42;102005.97;5072028;28;20048;-67
2022/07/07 09:33:03;;;;;;;;;;;;;;;21.67;57.64;102011.03;5055406;28;20048;-67
2022/07/07 09:38:23;;;;;;;3.90;1.10;;;;;;;21.64;58.35;102017.34;5034161;28;20063;-67
2022/07/07 09:41:01;;;;;;;4.60;1.20;;;;;;;21.70;57.82;102019.56;5038321;28;20048;-68
2022/07/07 09:43:36;;;;;;;4.47;1.20;;;;;;;21.85;57.59;102020.78;5072725;28;20049;-66
2022/07/07 09:46:20;;;;;;;5.35;1.27;;;;;;;21.74;57.61;102026.06;5077148;28;20036;-67
2022/07/07 09:48:49;;;;;;;2.80;1.30;;;;;;;21.38;58.01;102042.19;5073891;28;20040;-68
2022/07/07 09:51:35;;;;;;;7.22;1.67;;;;;;;21.38;58.98;102030.97;5077115;28;20060;-67
2022/07/07 09:54:08;;;;;;;6.55;1.10;;;;;;;21.40;59.40;102051.06;5079962;28;20062;-68
2022/07/07 09:56:37;;;;;;;8.90;1.42;;;;;;;21.28;59.85;102051.94;5053268;28;20048;-67
2022/07/07 09:59:10;;;;;;;6.03;1.23;;;;;;;21.23;60.58;102054.97;5067225;28;20057;-68
2022/07/07 10:01:40;;;;;;;5.85;1.45;;;;;;;21.19;60.60;102070.84;5048101;28;20522;-67
2022/07/07 10:04:10;;;;;;;;;;;;;;;20.87;61.44;102080.19;5081443;28;20044;-68
2022/07/07 10:06:40;;;;;;;8.52;1.35;;;;;;;20.97;61.68;102065.72;5072200;28;19924;-68
2022/07/07 10:09:16;;;;;;;8.60;1.60;;;;;;;20.89;61.66;102087.06;5071049;28;20052;-67
2022/07/07 10:11:51;;;;;;;4.20;1.65;;;;;;;20.72;62.70;102086.47;5086412;28;20460;-66
2022/07/07 10:14:32;;;;;;;5.65;1.52;;;;;;;20.53;63.36;102103.00;5063326;28;20052;-67
2022/07/07 10:16:59;;;;;;;;;;;;;;;20.57;63.54;102089.97;5074202;28;20051;-67
2022/07/07 10:19:27;;;;;;;5.43;1.50;;;;;;;20.39;64.12;102096.91;5080703;28;20398;-68
2022/07/07 10:21:56;;;;;;;11.27;1.90;;;;;;;20.66;63.72;102088.69;5086183;28;20055;-68
2022/07/07 10:24:27;;;;;;;5.07;1.20;;;;;;;20.48;62.67;102104.06;5080442;28;20056;-66
2022/07/07 10:26:56;;;;;;;4.35;1.58;;;;;;;20.74;61.84;102103.75;5084798;28;20048;-67
2022/07/07 10:29:46;;;;;;;5.63;1.90;;;;;;;20.73;61.39;102113.31;5047975;28;20053;-67
2022/07/07 10:32:16;;;;;;;9.02;2.00;;;;;;;20.57;61.46;102121.59;5079288;28;20375;-66
2022/07/07 10:34:53;;;;;;;;;;;;;;;20.19;62.95;102126.56;5092150;28;20051;-66
2022/07/07 10:37:22;;;;;;;6.43;1.70;;;;;;;20.22;63.15;102111.91;5071709;28;19920;-68
2022/07/07 10:39:53;;;;;;;6.97;2.50;;;;;;;20.50;62.41;102118.53;5022528;28;20060;-68
2022/07/07 10:42:30;;;;;;;9.02;5.93;;;;;;;20.49;62.26;102113.25;5088288;28;20048;-67
2022/07/07 10:44:58;;;;;;;5.68;2.10;;;;;;;20.57;61.90;102120.75;5062762;28;20511;-68
2022/07/07 10:47:25;;;;;;;4.85;2.85;;;;;;;20.50;62.43;102121.34;5067183;28;20048;-66
2022/07/07 10:49:54;;;;;;;5.38;2.17;;;;;;;20.85;61.38;102130.13;5076923;28;20052;-65
2022/07/07 10:52:24;;;;;;;3.42;1.70;;;;;;;20.95;61.02;102129.69;5087636;28;20056;-67
2022/07/07 10:54:53;;;;;;;6.43;1.88;;;;;;;20.77;60.74;102125.44;5076502;28;20063;-68
2022/07/07 10:57:22;;;;;;;6.40;2.33;;;;;;;20.75;61.34;102125.81;5065207;28;20048;-65
2022/07/07 10:59:56;;;;;;;6.78;1.75;;;;;;;20.73;61.39;102132.94;5039504;28;20049;-61
2022/07/07 11:02:30;;;;;;;7.60;1.83;;;;;;;20.38;62.41;102134.47;5059158;28;20053;-61
2022/07/07 11:04:59;;;;;;;9.95;3.58;;;;;;;20.58;62.11;102125.19;5072401;28;20057;-62
2022/07/07 11:07:28;;;;;;;7.93;5.03;;;;;;;20.94;61.15;102131.66;5048702;28;20049;-62
2022/07/07 11:10:06;;;;;;;7.28;3.28;;;;;;;20.73;61.36;102125.31;5085511;28;20043;-61
2022/07/07 11:12:35;;;;;;;4.57;2.30;;;;;;;20.92;60.57;102130.38;5075826;28;20048;-61
2022/07/07 11:15:18;;;;;;;8.02;2.70;;;;;;;20.63;61.62;102144.56;5061310;28;20048;-62
2022/07/07 11:18:16;;;;;;;4.85;1.67;;;;;;;20.73;61.04;102144.94;5058102;28;20673;-67
2022/07/07 11:20:54;;;;;;;4.72;2.28;;;;;;;20.84;60.63;102136.88;5085392;28;20055;-66
2022/07/07 11:23:23;;;;;;;9.35;2.30;;;;;;;21.11;59.85;102128.66;5079059;28;20060;-66
2022/07/07 11:25:55;;;;;;;10.77;2.60;;;;;;;21.45;58.79;102135.75;5061724;28;20044;-66
2022/07/07 11:28:25;;;;;;;7.97;2.50;;;;;;;22.09;56.98;102133.72;5079044;28;20306;-67
2022/07/07 11:31:09;;;;;;;7.05;1.95;;;;;;;21.84;56.62;102142.59;5048660;28;22125;-65
2022/07/07 11:33:39;;;;;;;7.88;1.40;;;;;;;21.46;57.78;102139.38;5061994;28;20051;-66
2022/07/07 11:36:21;;;;;;;6.53;1.83;;;;;;;21.25;59.00;102143.13;5076262;28;20040;-66